createdAt,value
2017-07-21T00:00:05.691Z,99.99
2017-07-21T00:01:17.685Z,99.99
2017-07-21T00:02:30.234Z,99.99
2017-07-21T00:03:42.809Z,99.99
2017-07-21T00:04:55.365Z,99.99
2017-07-21T00:06:07.958Z,99.99
2017-07-21T00:07:20.562Z,99.99
2017-07-21T00:08:33.217Z,99.99
2017-07-21T00:09:45.824Z,99.99
2017-07-21T00:10:58.353Z,99.99
2017-07-21T00:12:10.976Z,99.99
2017-07-21T00:13:23.563Z,99.99
2017-07-21T00:14:36.121Z,99.99
2017-07-21T00:15:48.673Z,99.99
2017-07-21T00:17:01.018Z,99.99
2017-07-21T00:18:13.606Z,99.99
2017-07-21T00:19:25.891Z,99.99
2017-07-21T00:20:38.484Z,99.99
2017-07-21T00:21:50.797Z,99.99
2017-07-21T00:23:03.364Z,99.99
2017-07-21T00:24:15.974Z,99.99
2017-07-21T00:25:28.579Z,99.99
2017-07-21T00:26:41.174Z,99.99
2017-07-21T00:27:53.789Z,99.99
2017-07-21T00:29:06.417Z,99.99
2017-07-21T00:30:18.743Z,99.99
2017-07-21T00:31:31.307Z,99.99
2017-07-21T00:32:43.918Z,99.99
2017-07-21T00:33:56.199Z,99.99
2017-07-21T00:35:08.515Z,99.99
2017-07-21T00:36:21.093Z,99.99
2017-07-21T00:37:33.386Z,99.99
2017-07-21T00:38:45.399Z,99.99
2017-07-21T00:39:57.985Z,99.99
2017-07-21T00:41:09.949Z,99.99
2017-07-21T00:42:22.178Z,99.99
2017-07-21T00:43:34.720Z,99.99
2017-07-21T00:44:47.327Z,99.99
2017-07-21T00:45:59.886Z,99.99
2017-07-21T00:47:12.207Z,99.99
2017-07-21T00:48:24.781Z,99.99
2017-07-21T00:49:37.360Z,99.99
2017-07-21T00:50:49.373Z,99.99
2017-07-21T00:52:01.700Z,99.99
2017-07-21T00:53:14.284Z,99.99
2017-07-21T00:54:26.902Z,99.99
2017-07-21T00:55:39.168Z,99.99
2017-07-21T00:56:51.514Z,99.99
2017-07-21T00:58:04.171Z,99.99
2017-07-21T00:59:16.781Z,99.99
2017-07-21T01:00:29.426Z,99.99
2017-07-21T01:01:42.030Z,99.99
2017-07-21T01:02:54.588Z,99.99
2017-07-21T01:04:06.902Z,99.99
2017-07-21T01:05:19.450Z,99.99
2017-07-21T01:06:31.992Z,99.99
2017-07-21T01:07:44.570Z,99.99
2017-07-21T01:08:57.106Z,99.99
2017-07-21T01:10:09.970Z,99.99
2017-07-21T01:11:22.496Z,99.99
2017-07-21T01:12:34.786Z,99.99
2017-07-21T01:13:46.707Z,99.99
2017-07-21T01:14:59.021Z,99.99
2017-07-21T01:16:11.667Z,99.99
2017-07-21T01:17:24.302Z,99.99
2017-07-21T01:18:36.848Z,99.99
2017-07-21T01:19:49.076Z,99.99
2017-07-21T01:21:01.327Z,99.99
2017-07-21T01:22:13.660Z,99.99
2017-07-21T01:23:26.030Z,99.99
2017-07-21T01:24:38.638Z,99.99
2017-07-21T01:25:51.225Z,99.99
2017-07-21T01:27:03.770Z,99.99
2017-07-21T01:28:16.344Z,99.99
2017-07-21T01:29:28.959Z,99.99
2017-07-21T01:30:41.585Z,99.99
2017-07-21T01:31:54.152Z,99.99
2017-07-21T01:33:06.773Z,99.99
2017-07-21T01:34:19.013Z,99.99
2017-07-21T01:35:31.590Z,99.99
2017-07-21T01:36:44.175Z,99.99
2017-07-21T01:37:56.824Z,99.99
2017-07-21T01:39:08.795Z,99.99
2017-07-21T01:40:21.016Z,99.99
2017-07-21T01:41:33.306Z,99.99
2017-07-21T01:42:45.667Z,99.99
2017-07-21T01:43:58.287Z,99.99
2017-07-21T01:45:10.894Z,99.99
2017-07-21T01:46:23.538Z,99.99
2017-07-21T01:47:35.525Z,99.99
2017-07-21T01:48:47.877Z,99.99
2017-07-21T01:50:00.509Z,99.99
2017-07-21T01:51:12.766Z,99.99
2017-07-21T01:52:24.726Z,99.99
2017-07-21T01:53:37.304Z,99.99
2017-07-21T01:54:49.591Z,99.99
2017-07-21T01:56:02.244Z,99.99
2017-07-21T01:57:14.545Z,99.99
2017-07-21T01:58:26.538Z,99.99
2017-07-21T01:59:39.108Z,99.99
2017-07-21T02:00:51.648Z,99.99
2017-07-21T02:02:04.244Z,99.99
2017-07-21T02:03:16.499Z,99.99
2017-07-21T02:04:29.396Z,99.99
2017-07-21T02:05:41.941Z,99.99
2017-07-21T02:06:54.615Z,99.99
2017-07-21T02:08:07.198Z,99.99
2017-07-21T02:09:19.822Z,99.99
2017-07-21T02:10:32.446Z,99.99
2017-07-21T02:11:44.385Z,99.99
2017-07-21T02:12:56.700Z,99.99
2017-07-21T02:14:09.290Z,99.99
2017-07-21T02:15:21.593Z,99.99
2017-07-21T02:16:33.952Z,99.99
2017-07-21T02:17:46.468Z,99.99
2017-07-21T02:18:59.097Z,99.99
2017-07-21T02:20:11.700Z,99.99
2017-07-21T02:21:24.328Z,99.99
2017-07-21T02:22:36.967Z,99.99
2017-07-21T02:23:49.231Z,99.99
2017-07-21T02:25:01.840Z,99.99
2017-07-21T02:26:14.422Z,99.99
2017-07-21T02:27:26.768Z,99.99
2017-07-21T02:28:39.096Z,99.99
2017-07-21T02:29:51.730Z,99.99
2017-07-21T02:31:04.377Z,99.99
2017-07-21T02:32:16.941Z,99.99
2017-07-21T02:33:29.512Z,99.99
2017-07-21T02:34:42.101Z,99.99
2017-07-21T02:35:54.329Z,99.99
2017-07-21T02:37:06.907Z,99.99
2017-07-21T02:38:19.176Z,99.99
2017-07-21T02:39:31.775Z,99.99
2017-07-21T02:40:44.348Z,99.99
2017-07-21T02:41:56.965Z,99.99
2017-07-21T02:43:09.178Z,99.99
2017-07-21T02:44:21.781Z,99.99
2017-07-21T02:45:33.776Z,99.99
2017-07-21T02:46:46.100Z,99.99
2017-07-21T02:47:58.926Z,99.99
2017-07-21T02:49:11.545Z,99.99
2017-07-21T02:50:24.104Z,99.99
2017-07-21T02:51:36.461Z,99.99
2017-07-21T02:52:49.059Z,99.99
2017-07-21T02:54:01.700Z,99.99
2017-07-21T02:55:14.013Z,99.99
2017-07-21T02:56:26.320Z,99.99
2017-07-21T02:57:38.618Z,99.99
2017-07-21T02:58:51.194Z,99.99
2017-07-21T03:00:03.769Z,99.99
2017-07-21T03:01:16.412Z,99.99
2017-07-21T03:02:29.058Z,99.99
2017-07-21T03:03:41.367Z,99.99
2017-07-21T03:04:53.974Z,99.99
2017-07-21T03:06:06.226Z,99.99
2017-07-21T03:07:18.779Z,99.99
2017-07-21T03:08:31.374Z,99.99
2017-07-21T03:09:43.321Z,99.99
2017-07-21T03:10:55.834Z,99.99
2017-07-21T03:12:08.416Z,99.99
2017-07-21T03:13:20.446Z,99.99
2017-07-21T03:14:33.022Z,99.99
2017-07-21T03:15:45.599Z,99.99
2017-07-21T03:16:57.875Z,99.99
2017-07-21T03:18:10.194Z,99.99
2017-07-21T03:19:22.462Z,99.99
2017-07-21T03:20:35.020Z,99.99
2017-07-21T03:21:47.611Z,99.99
2017-07-21T03:23:00.181Z,99.99
2017-07-21T03:24:12.773Z,99.99
2017-07-21T03:25:24.761Z,99.99
2017-07-21T03:26:37.363Z,99.99
2017-07-21T03:27:49.996Z,99.99
2017-07-21T03:29:02.640Z,99.99
2017-07-21T03:30:15.278Z,99.99
2017-07-21T03:31:27.873Z,99.99
2017-07-21T03:32:40.173Z,99.99
2017-07-21T03:33:52.445Z,99.99
2017-07-21T03:35:05.036Z,99.99
2017-07-21T03:36:17.324Z,99.99
2017-07-21T03:37:29.914Z,99.99
2017-07-21T03:38:42.525Z,99.99
2017-07-21T03:39:55.180Z,99.99
2017-07-21T03:41:07.456Z,99.99
2017-07-21T03:42:20.064Z,99.99
2017-07-21T03:43:32.644Z,99.99
2017-07-21T03:44:44.609Z,99.99
2017-07-21T03:45:56.927Z,99.99
2017-07-21T03:47:09.229Z,99.99
2017-07-21T03:48:21.867Z,99.99
2017-07-21T03:49:34.444Z,99.99
2017-07-21T03:50:47.058Z,99.99
2017-07-21T03:51:59.679Z,99.99
2017-07-21T03:53:11.981Z,99.99
2017-07-21T03:54:24.606Z,99.99
2017-07-21T03:55:37.223Z,99.99
2017-07-21T03:56:49.862Z,99.99
2017-07-21T03:58:02.425Z,99.99
2017-07-21T03:59:14.672Z,99.99
2017-07-21T04:00:27.257Z,99.99
2017-07-21T04:01:39.800Z,99.99
2017-07-21T04:02:51.752Z,99.99
2017-07-21T04:04:04.380Z,99.99
2017-07-21T04:05:17.004Z,99.99
2017-07-21T04:06:29.265Z,99.99
2017-07-21T04:07:41.889Z,99.99
2017-07-21T04:08:54.475Z,99.99
2017-07-21T04:10:06.767Z,99.99
2017-07-21T04:11:19.116Z,99.99
2017-07-21T04:12:31.679Z,99.99
2017-07-21T04:13:43.605Z,99.99
2017-07-21T04:14:56.212Z,99.99
2017-07-21T04:16:08.140Z,99.99
2017-07-21T04:17:20.767Z,99.99
2017-07-21T04:18:33.299Z,99.99
2017-07-21T04:19:45.608Z,99.99
2017-07-21T04:20:58.172Z,99.99
2017-07-21T04:22:10.835Z,99.99
2017-07-21T04:23:23.461Z,99.99
2017-07-21T04:24:36.070Z,99.99
2017-07-21T04:25:48.395Z,99.99
2017-07-21T04:27:00.734Z,99.99
2017-07-21T04:28:13.330Z,99.99
2017-07-21T04:29:25.633Z,99.99
2017-07-21T04:30:37.948Z,99.99
2017-07-21T04:31:50.565Z,99.99
2017-07-21T04:33:02.576Z,99.99
2017-07-21T04:34:15.153Z,99.99
2017-07-21T04:35:27.708Z,99.99
2017-07-21T04:36:39.979Z,99.99
2017-07-21T04:37:52.623Z,99.99
2017-07-21T04:39:04.928Z,99.99
2017-07-21T04:40:16.900Z,99.99
2017-07-21T04:41:28.956Z,99.99
2017-07-21T04:42:41.232Z,99.99
2017-07-21T04:43:53.489Z,99.99
2017-07-21T04:45:06.092Z,99.99
2017-07-21T04:46:18.662Z,99.99
2017-07-21T04:47:31.359Z,99.99
2017-07-21T04:48:43.922Z,99.99
2017-07-21T04:49:56.588Z,99.99
2017-07-21T04:51:09.185Z,99.99
2017-07-21T04:52:21.525Z,99.99
2017-07-21T04:53:34.087Z,99.99
2017-07-21T04:54:46.682Z,99.99
2017-07-21T04:55:58.986Z,99.99
2017-07-21T04:57:11.299Z,99.99
2017-07-21T04:58:23.285Z,99.99
2017-07-21T04:59:35.592Z,99.99
2017-07-21T05:00:47.851Z,99.99
2017-07-21T05:02:00.497Z,99.99
2017-07-21T05:03:13.091Z,99.99
2017-07-21T05:04:25.996Z,99.99
2017-07-21T05:05:38.360Z,99.99
2017-07-21T05:06:50.610Z,99.99
2017-07-21T05:08:03.262Z,99.99
2017-07-21T05:09:15.828Z,99.99
2017-07-21T05:10:28.155Z,99.99
2017-07-21T05:11:40.744Z,99.99
2017-07-21T05:12:53.060Z,99.99
2017-07-21T05:14:05.268Z,99.99
2017-07-21T05:15:17.850Z,99.99
2017-07-21T05:16:30.435Z,99.99
2017-07-21T05:17:42.730Z,99.99
2017-07-21T05:18:55.277Z,99.99
2017-07-21T05:20:07.930Z,99.99
2017-07-21T05:21:20.593Z,99.99
2017-07-21T05:22:32.555Z,99.99
2017-07-21T05:23:45.110Z,99.99
2017-07-21T05:24:57.678Z,99.99
2017-07-21T05:26:09.684Z,99.99
2017-07-21T05:27:21.971Z,99.99
2017-07-21T05:28:34.310Z,99.99
2017-07-21T05:29:46.553Z,99.99
2017-07-21T05:30:59.154Z,99.99
2017-07-21T05:32:11.775Z,99.99
2017-07-21T05:33:24.029Z,99.99
2017-07-21T05:34:36.555Z,99.99
2017-07-21T05:35:48.525Z,99.99
2017-07-21T05:37:01.040Z,99.99
2017-07-21T05:38:13.319Z,99.99
2017-07-21T05:39:25.933Z,99.99
2017-07-21T05:40:38.546Z,99.99
2017-07-21T05:41:50.835Z,99.99
2017-07-21T05:43:02.853Z,99.99
2017-07-21T05:44:15.204Z,99.99
2017-07-21T05:45:27.787Z,99.99
2017-07-21T05:46:40.339Z,99.99
2017-07-21T05:47:52.637Z,99.99
2017-07-21T05:49:05.230Z,99.99
2017-07-21T05:50:17.198Z,99.99
2017-07-21T05:51:29.423Z,99.99
2017-07-21T05:52:41.702Z,99.99
2017-07-21T05:53:54.308Z,99.99
2017-07-21T05:55:06.874Z,99.99
2017-07-21T05:56:18.859Z,99.99
2017-07-21T05:57:31.428Z,99.99
2017-07-21T05:58:43.676Z,99.99
2017-07-21T05:59:56.298Z,99.99
2017-07-21T06:01:08.627Z,99.99
2017-07-21T06:02:20.891Z,99.99
2017-07-21T06:03:33.701Z,99.99
2017-07-21T06:04:46.246Z,99.99
2017-07-21T06:05:58.549Z,99.99
2017-07-21T06:07:11.133Z,99.99
2017-07-21T06:08:23.770Z,99.99
2017-07-21T06:09:36.374Z,99.99
2017-07-21T06:10:48.650Z,99.99
2017-07-21T06:12:01.285Z,99.99
2017-07-21T06:13:13.257Z,99.99
2017-07-21T06:14:25.830Z,99.99
2017-07-21T06:15:38.150Z,99.99
2017-07-21T06:16:50.788Z,99.99
2017-07-21T06:18:03.108Z,99.99
2017-07-21T06:19:15.674Z,99.99
2017-07-21T06:20:27.973Z,99.99
2017-07-21T06:21:40.603Z,99.99
2017-07-21T06:22:53.226Z,99.99
2017-07-21T06:24:05.816Z,99.99
2017-07-21T06:25:18.082Z,99.99
2017-07-21T06:26:30.684Z,99.99
2017-07-21T06:27:42.651Z,99.99
2017-07-21T06:28:55.208Z,99.99
2017-07-21T06:30:07.785Z,99.99
2017-07-21T06:31:20.064Z,99.99
2017-07-21T06:32:32.636Z,99.99
2017-07-21T06:33:44.934Z,99.99
2017-07-21T06:34:57.507Z,99.99
2017-07-21T06:36:09.440Z,99.99
2017-07-21T06:37:21.786Z,99.99
2017-07-21T06:38:34.393Z,99.99
2017-07-21T06:39:46.710Z,99.99
2017-07-21T06:40:59.307Z,99.99
2017-07-21T06:42:11.578Z,99.99
2017-07-21T06:43:24.192Z,99.99
2017-07-21T06:44:36.505Z,99.99
2017-07-21T06:45:48.840Z,99.99
2017-07-21T06:47:01.164Z,99.99
2017-07-21T06:48:13.489Z,99.99
2017-07-21T06:49:26.070Z,99.99
2017-07-21T06:50:38.747Z,99.98
2017-07-21T06:51:51.057Z,98.63
2017-07-21T06:53:03.333Z,98.2
2017-07-21T06:54:15.617Z,98.15
2017-07-21T06:55:27.895Z,97.23
2017-07-21T06:56:40.229Z,96.22
2017-07-21T06:57:52.860Z,95.06
2017-07-21T06:59:05.112Z,93.65
2017-07-21T07:00:17.377Z,91.86
2017-07-21T07:01:30.035Z,91.71
2017-07-21T07:02:41.994Z,90.78
2017-07-21T07:03:54.338Z,89.62
2017-07-21T07:05:06.928Z,89.28
2017-07-21T07:06:19.227Z,88.7
2017-07-21T07:07:31.559Z,87.87
2017-07-21T07:08:43.863Z,86.9
2017-07-21T07:09:56.486Z,86.75
2017-07-21T07:11:09.047Z,85.82
2017-07-21T07:12:21.386Z,85.63
2017-07-21T07:13:33.698Z,84.31
2017-07-21T07:14:45.670Z,84.41
2017-07-21T07:15:57.616Z,84.16
2017-07-21T07:17:09.916Z,83.18
2017-07-21T07:18:22.248Z,82.89
2017-07-21T07:19:34.829Z,81.76
2017-07-21T07:20:47.378Z,81.67
2017-07-21T07:21:59.976Z,81.53
2017-07-21T07:23:12.637Z,81.76
2017-07-21T07:24:25.312Z,81.53
2017-07-21T07:25:37.931Z,81.92
2017-07-21T07:26:50.533Z,81.28
2017-07-21T07:28:02.547Z,80.89
2017-07-21T07:29:15.176Z,80.79
2017-07-21T07:30:27.481Z,79.72
2017-07-21T07:31:40.017Z,79.53
2017-07-21T07:32:52.704Z,79.53
2017-07-21T07:34:05.265Z,80.11
2017-07-21T07:35:17.911Z,79.63
2017-07-21T07:36:30.535Z,79.18
2017-07-21T07:37:43.169Z,79.08
2017-07-21T07:38:55.486Z,79.47
2017-07-21T07:40:08.086Z,79.18
2017-07-21T07:41:20.366Z,79.28
2017-07-21T07:42:32.702Z,78.99
2017-07-21T07:43:45.331Z,79.28
2017-07-21T07:44:57.617Z,78.59
2017-07-21T07:46:10.264Z,78.01
2017-07-21T07:47:22.607Z,77.66
2017-07-21T07:48:35.183Z,77.62
2017-07-21T07:49:47.797Z,78.75
2017-07-21T07:51:00.443Z,78.56
2017-07-21T07:52:12.669Z,78.75
2017-07-21T07:53:25.242Z,78.75
2017-07-21T07:54:37.821Z,78.07
2017-07-21T07:55:50.458Z,77.97
2017-07-21T07:57:03.123Z,78.66
2017-07-21T07:58:15.363Z,79.24
2017-07-21T07:59:27.941Z,78.85
2017-07-21T08:00:40.218Z,78.94
2017-07-21T08:01:52.546Z,79.04
2017-07-21T08:03:05.163Z,79.2
2017-07-21T08:04:17.222Z,79.39
2017-07-21T08:05:29.881Z,80.17
2017-07-21T08:06:42.469Z,80.36
2017-07-21T08:07:54.438Z,80.36
2017-07-21T08:09:06.714Z,79.78
2017-07-21T08:10:19.332Z,79.3
2017-07-21T08:11:31.953Z,79.88
2017-07-21T08:12:44.583Z,80.04
2017-07-21T08:13:56.892Z,80.62
2017-07-21T08:15:09.481Z,80.91
2017-07-21T08:16:22.026Z,80.81
2017-07-21T08:17:34.642Z,80.71
2017-07-21T08:18:47.313Z,81.1
2017-07-21T08:19:59.931Z,81.45
2017-07-21T08:21:12.246Z,81.93
2017-07-21T08:22:24.869Z,82.48
2017-07-21T08:23:36.863Z,82.38
2017-07-21T08:24:49.183Z,82.87
2017-07-21T08:26:01.476Z,83.02
2017-07-21T08:27:14.100Z,82.82
2017-07-21T08:28:26.664Z,83.47
2017-07-21T08:29:39.212Z,83.89
2017-07-21T08:30:51.861Z,84.05
2017-07-21T08:32:04.159Z,84.34
2017-07-21T08:33:16.808Z,84.05
2017-07-21T08:34:29.064Z,83.85
2017-07-21T08:35:41.362Z,84.39
2017-07-21T08:36:53.882Z,84.58
2017-07-21T08:38:06.496Z,84.68
2017-07-21T08:39:18.783Z,84.49
2017-07-21T08:40:30.745Z,85.13
2017-07-21T08:41:43.372Z,84.68
2017-07-21T08:42:55.694Z,84.97
2017-07-21T08:44:08.216Z,84.93
2017-07-21T08:45:20.796Z,85.65
2017-07-21T08:46:32.749Z,85.55
2017-07-21T08:47:45.359Z,84.68
2017-07-21T08:48:57.701Z,85.17
2017-07-21T08:50:10.023Z,84.58
2017-07-21T08:51:22.598Z,84.88
2017-07-21T08:52:34.897Z,84.68
2017-07-21T08:53:47.500Z,84.58
2017-07-21T08:54:59.794Z,84.39
2017-07-21T08:56:11.753Z,84.68
2017-07-21T08:57:24.369Z,84
2017-07-21T08:58:36.966Z,83.95
2017-07-21T08:59:49.592Z,84.24
2017-07-21T09:01:01.907Z,83.75
2017-07-21T09:02:14.209Z,83.07
2017-07-21T09:03:26.777Z,83.17
2017-07-21T09:04:39.369Z,82.88
2017-07-21T09:05:52.019Z,83.02
2017-07-21T09:07:04.689Z,82.92
2017-07-21T09:08:17.357Z,81.95
2017-07-21T09:09:29.704Z,82.24
2017-07-21T09:10:42.017Z,82.15
2017-07-21T09:11:54.595Z,81.9
2017-07-21T09:13:06.627Z,81.8
2017-07-21T09:14:18.938Z,80.93
2017-07-21T09:15:31.527Z,81.02
2017-07-21T09:16:44.107Z,81.41
2017-07-21T09:17:56.464Z,81.12
2017-07-21T09:19:08.774Z,81.27
2017-07-21T09:20:21.043Z,81.76
2017-07-21T09:21:33.613Z,81.85
2017-07-21T09:22:46.213Z,81.66
2017-07-21T09:23:58.515Z,82.24
2017-07-21T09:25:10.457Z,82.24
2017-07-21T09:26:22.773Z,82.53
2017-07-21T09:27:35.071Z,81.7
2017-07-21T09:28:47.387Z,81.12
2017-07-21T09:29:59.999Z,80.73
2017-07-21T09:31:11.979Z,81.35
2017-07-21T09:32:24.562Z,80.19
2017-07-21T09:33:37.227Z,79.22
2017-07-21T09:34:49.168Z,79.06
2017-07-21T09:36:01.747Z,79.55
2017-07-21T09:37:14.322Z,78.97
2017-07-21T09:38:26.673Z,79.25
2017-07-21T09:39:38.954Z,78.81
2017-07-21T09:40:51.646Z,78.61
2017-07-21T09:42:04.180Z,77.68
2017-07-21T09:43:16.431Z,76.81
2017-07-21T09:44:29.064Z,76.81
2017-07-21T09:45:41.397Z,76.42
2017-07-21T09:46:53.335Z,76.71
2017-07-21T09:48:05.930Z,76.75
2017-07-21T09:49:18.295Z,74.99
2017-07-21T09:50:30.615Z,75.19
2017-07-21T09:51:42.935Z,73.67
2017-07-21T09:52:55.530Z,74.32
2017-07-21T09:54:07.537Z,75.09
2017-07-21T09:55:19.786Z,75.29
2017-07-21T09:56:32.112Z,75.87
2017-07-21T09:57:44.402Z,74.32
2017-07-21T09:58:56.462Z,73.18
2017-07-21T10:00:09.062Z,73.47
2017-07-21T10:01:21.681Z,73.18
2017-07-21T10:02:33.971Z,73.47
2017-07-21T10:03:46.238Z,73.08
2017-07-21T10:04:58.902Z,73.38
2017-07-21T10:06:11.585Z,73.38
2017-07-21T10:07:23.570Z,72.92
2017-07-21T10:08:35.830Z,73.22
2017-07-21T10:09:48.129Z,72.47
2017-07-21T10:11:00.751Z,71.7
2017-07-21T10:12:13.069Z,70.86
2017-07-21T10:13:25.662Z,69.88
2017-07-21T10:14:37.975Z,70.21
2017-07-21T10:15:50.504Z,69.46
2017-07-21T10:17:03.142Z,68.81
2017-07-21T10:18:15.759Z,68.52
2017-07-21T10:19:28.418Z,68.55
2017-07-21T10:20:41.054Z,66.89
2017-07-21T10:21:53.402Z,66.6
2017-07-21T10:23:05.682Z,66.14
2017-07-21T10:24:18.302Z,66.14
2017-07-21T10:25:30.925Z,66.14
2017-07-21T10:26:43.492Z,66.27
2017-07-21T10:27:55.816Z,64.42
2017-07-21T10:29:08.508Z,64.74
2017-07-21T10:30:20.806Z,64.74
2017-07-21T10:31:33.393Z,64.18
2017-07-21T10:32:45.938Z,63.4
2017-07-21T10:33:58.233Z,63.53
2017-07-21T10:35:10.942Z,63.17
2017-07-21T10:36:23.561Z,62.58
2017-07-21T10:37:35.529Z,61.8
2017-07-21T10:38:47.864Z,61.63
2017-07-21T10:40:00.197Z,61.24
2017-07-21T10:41:12.554Z,60.58
2017-07-21T10:42:24.899Z,60.58
2017-07-21T10:43:36.927Z,60.29
2017-07-21T10:44:49.161Z,60.97
2017-07-21T10:46:01.755Z,60.78
2017-07-21T10:47:14.398Z,60.97
2017-07-21T10:48:27.019Z,60.88
2017-07-21T10:49:39.675Z,60.19
2017-07-21T10:50:52.036Z,60.75
2017-07-21T10:52:04.665Z,61.21
2017-07-21T10:53:16.305Z,61.21
2017-07-21T10:54:28.904Z,61.87
2017-07-21T10:55:40.567Z,61.96
2017-07-21T10:56:53.218Z,61.9
2017-07-21T10:58:05.852Z,60.82
2017-07-21T10:59:18.106Z,61.02
2017-07-21T11:00:30.703Z,60.82
2017-07-21T11:01:42.706Z,59.58
2017-07-21T11:02:54.710Z,59.41
2017-07-21T11:04:07.305Z,59.11
2017-07-21T11:05:19.954Z,59.7
2017-07-21T11:06:32.613Z,58.23
2017-07-21T11:07:45.169Z,58.36
2017-07-21T11:08:57.148Z,58.36
2017-07-21T11:10:09.507Z,58.48
2017-07-21T11:11:21.827Z,58.12
2017-07-21T11:12:34.522Z,58.02
2017-07-21T11:13:46.460Z,57.63
2017-07-21T11:14:59.088Z,57.07
2017-07-21T11:16:11.741Z,56.97
2017-07-21T11:17:24.023Z,56.58
2017-07-21T11:18:36.333Z,56.77
2017-07-21T11:19:48.666Z,56.77
2017-07-21T11:21:01.315Z,56.48
2017-07-21T11:22:13.610Z,56.28
2017-07-21T11:23:26.182Z,56.38
2017-07-21T11:24:38.793Z,56.09
2017-07-21T11:25:51.404Z,55
2017-07-21T11:27:04.039Z,55.86
2017-07-21T11:28:16.350Z,56.55
2017-07-21T11:29:28.371Z,56.35
2017-07-21T11:30:40.998Z,56.52
2017-07-21T11:31:53.347Z,56.82
2017-07-21T11:33:05.979Z,57.38
2017-07-21T11:34:18.613Z,58.23
2017-07-21T11:35:31.195Z,58.75
2017-07-21T11:36:43.885Z,58.36
2017-07-21T11:37:56.487Z,57.97
2017-07-21T11:39:09.090Z,57.64
2017-07-21T11:40:21.960Z,58.36
2017-07-21T11:41:34.213Z,57.38
2017-07-21T11:42:46.515Z,57.57
2017-07-21T11:43:59.101Z,57.84
2017-07-21T11:45:10.802Z,57.08
2017-07-21T11:46:23.121Z,56.79
2017-07-21T11:47:35.724Z,56.88
2017-07-21T11:48:48.338Z,56.79
2017-07-21T11:50:00.025Z,56.49
2017-07-21T11:51:12.046Z,56.42
2017-07-21T11:52:24.379Z,55.83
2017-07-21T11:53:36.700Z,55.54
2017-07-21T11:54:48.997Z,54.95
2017-07-21T11:56:01.558Z,56.1
2017-07-21T11:57:14.178Z,56.59
2017-07-21T11:58:26.506Z,55.74
2017-07-21T11:59:38.858Z,55.24
2017-07-21T12:00:51.516Z,55.08
2017-07-21T12:02:04.127Z,55.57
2017-07-21T12:03:16.464Z,54.71
2017-07-21T12:04:28.850Z,54.25
2017-07-21T12:05:41.513Z,53.39
2017-07-21T12:06:54.114Z,53.19
2017-07-21T12:08:06.705Z,53.61
2017-07-21T12:09:19.048Z,53.51
2017-07-21T12:10:31.062Z,52.82
2017-07-21T12:11:43.386Z,52.26
2017-07-21T12:12:55.360Z,53.12
2017-07-21T12:14:07.932Z,52.82
2017-07-21T12:15:20.581Z,51.67
2017-07-21T12:16:32.613Z,51.47
2017-07-21T12:17:45.184Z,52.36
2017-07-21T12:18:57.740Z,51.67
2017-07-21T12:20:10.343Z,51.18
2017-07-21T12:21:22.680Z,52.33
2017-07-21T12:22:35.261Z,52.8
2017-07-21T12:23:47.813Z,53.27
2017-07-21T12:25:00.150Z,53.53
2017-07-21T12:26:11.806Z,53.23
2017-07-21T12:27:24.437Z,52.84
2017-07-21T12:28:36.740Z,52.84
2017-07-21T12:29:49.050Z,53.04
2017-07-21T12:31:01.647Z,53.23
2017-07-21T12:32:14.260Z,52.84
2017-07-21T12:33:26.599Z,52.67
2017-07-21T12:34:39.212Z,52.58
2017-07-21T12:35:51.798Z,52.87
2017-07-21T12:37:04.454Z,53.78
2017-07-21T12:38:16.404Z,53.98
2017-07-21T12:39:29.048Z,53.61
2017-07-21T12:40:41.322Z,52.72
2017-07-21T12:41:53.616Z,51.47
2017-07-21T12:43:05.930Z,51.89
2017-07-21T12:44:18.257Z,51.1
2017-07-21T12:45:30.239Z,50.63
2017-07-21T12:46:42.779Z,50.24
2017-07-21T12:47:55.081Z,50.36
2017-07-21T12:49:07.654Z,50.29
2017-07-21T12:50:19.685Z,49.69
2017-07-21T12:51:32.265Z,49.52
2017-07-21T12:52:44.897Z,49.43
2017-07-21T12:53:57.509Z,48.86
2017-07-21T12:55:09.883Z,48.28
2017-07-21T12:56:22.128Z,47.3
2017-07-21T12:57:34.392Z,47.89
2017-07-21T12:58:47.019Z,47.81
2017-07-21T12:59:59.265Z,46.93
2017-07-21T13:01:11.245Z,45.94
2017-07-21T13:02:23.539Z,46.26
2017-07-21T13:03:35.844Z,46.33
2017-07-21T13:04:48.216Z,47.32
2017-07-21T13:06:00.906Z,47.22
2017-07-21T13:07:12.947Z,46.73
2017-07-21T13:08:25.549Z,46.7
2017-07-21T13:09:37.793Z,46.7
2017-07-21T13:10:50.393Z,46.88
2017-07-21T13:12:02.725Z,47.45
2017-07-21T13:13:14.995Z,48
2017-07-21T13:14:27.567Z,48.27
2017-07-21T13:15:40.187Z,49.13
2017-07-21T13:16:52.750Z,49.58
2017-07-21T13:18:05.712Z,50.66
2017-07-21T13:19:18.033Z,51.12
2017-07-21T13:20:30.629Z,52.6
2017-07-21T13:21:42.903Z,53.85
2017-07-21T13:22:55.220Z,54.25
2017-07-21T13:24:07.505Z,54.02
2017-07-21T13:25:20.064Z,53.83
2017-07-21T13:26:32.750Z,53.41
2017-07-21T13:27:45.302Z,53.9
2017-07-21T13:28:57.258Z,54.07
2017-07-21T13:30:09.922Z,54.33
2017-07-21T13:31:21.578Z,55
2017-07-21T13:32:34.273Z,54.9
2017-07-21T13:33:46.862Z,54.7
2017-07-21T13:34:59.187Z,54.21
2017-07-21T13:36:11.829Z,55.19
2017-07-21T13:37:24.464Z,55.14
2017-07-21T13:38:37.031Z,55.04
2017-07-21T13:39:49.674Z,55.9
2017-07-21T13:41:02.309Z,55.99
2017-07-21T13:42:14.869Z,56.68
2017-07-21T13:43:26.869Z,56.06
2017-07-21T13:44:39.426Z,56.95
2017-07-21T13:45:52.053Z,56.43
2017-07-21T13:47:04.071Z,56.33
2017-07-21T13:48:16.362Z,56.85
2017-07-21T13:49:28.655Z,57.63
2017-07-21T13:50:41.269Z,57.14
2017-07-21T13:51:53.833Z,56.38
2017-07-21T13:53:06.152Z,56.19
2017-07-21T13:54:18.144Z,56.29
2017-07-21T13:55:30.810Z,55.9
2017-07-21T13:56:43.155Z,55.7
2017-07-21T13:57:55.726Z,56.19
2017-07-21T13:59:08.340Z,57.56
2017-07-21T14:00:20.623Z,57.26
2017-07-21T14:01:33.257Z,56.29
2017-07-21T14:02:45.840Z,56.65
2017-07-21T14:03:58.408Z,57.34
2017-07-21T14:05:10.969Z,56.75
2017-07-21T14:06:23.589Z,57.01
2017-07-21T14:07:35.944Z,57.4
2017-07-21T14:08:48.533Z,57.67
2017-07-21T14:10:01.137Z,58.06
2017-07-21T14:11:13.432Z,58.62
2017-07-21T14:12:26.009Z,58.81
2017-07-21T14:13:38.592Z,59.18
2017-07-21T14:14:50.627Z,60.06
2017-07-21T14:16:03.223Z,60.45
2017-07-21T14:17:15.816Z,59.86
2017-07-21T14:18:28.437Z,59.93
2017-07-21T14:19:41.061Z,59.83
2017-07-21T14:20:53.661Z,59.83
2017-07-21T14:22:05.918Z,58.56
2017-07-21T14:23:18.271Z,58.86
2017-07-21T14:24:30.604Z,59.54
2017-07-21T14:25:43.190Z,60.55
2017-07-21T14:26:55.757Z,60.94
2017-07-21T14:28:08.001Z,60.45
2017-07-21T14:29:20.307Z,58.81
2017-07-21T14:30:32.884Z,58.62
2017-07-21T14:31:45.516Z,58.55
2017-07-21T14:32:58.134Z,57.67
2017-07-21T14:34:10.446Z,56.36
2017-07-21T14:35:22.743Z,55.77
2017-07-21T14:36:35.357Z,55.51
2017-07-21T14:37:47.979Z,54.52
2017-07-21T14:39:00.606Z,54.85
2017-07-21T14:40:13.199Z,54.94
2017-07-21T14:41:25.527Z,54.28
2017-07-21T14:42:37.908Z,54.09
2017-07-21T14:43:50.464Z,53.63
2017-07-21T14:45:03.072Z,54.02
2017-07-21T14:46:15.817Z,53.63
2017-07-21T14:47:28.412Z,53.16
2017-07-21T14:48:40.772Z,53.16
2017-07-21T14:49:53.406Z,52.89
2017-07-21T14:51:06.022Z,52.99
2017-07-21T14:52:18.349Z,52.82
2017-07-21T14:53:30.682Z,53.31
2017-07-21T14:54:42.994Z,52.33
2017-07-21T14:55:55.613Z,51.34
2017-07-21T14:57:07.952Z,51.74
2017-07-21T14:58:20.298Z,52.01
2017-07-21T14:59:32.625Z,52.96
2017-07-21T15:00:45.250Z,53.94
2017-07-21T15:01:57.204Z,53.23
2017-07-21T15:03:09.845Z,53.4
2017-07-21T15:04:22.452Z,54.19
2017-07-21T15:05:35.084Z,54.46
2017-07-21T15:06:47.700Z,54.72
2017-07-21T15:08:00.322Z,54.43
2017-07-21T15:09:12.902Z,54.79
2017-07-21T15:10:25.486Z,55.08
2017-07-21T15:11:37.821Z,55.74
2017-07-21T15:12:50.426Z,56.1
2017-07-21T15:14:02.998Z,57.09
2017-07-21T15:15:15.619Z,57.35
2017-07-21T15:16:28.224Z,57.62
2017-07-21T15:17:41.111Z,57.42
2017-07-21T15:18:53.396Z,57.71
2017-07-21T15:20:06.016Z,58.01
2017-07-21T15:21:18.575Z,57.88
2017-07-21T15:22:31.124Z,58.17
2017-07-21T15:23:43.727Z,58.56
2017-07-21T15:24:56.310Z,59.02
2017-07-21T15:26:08.720Z,58.34
2017-07-21T15:27:21.386Z,58.83
2017-07-21T15:28:33.945Z,59.67
2017-07-21T15:29:46.553Z,60.16
2017-07-21T15:30:58.841Z,60.52
2017-07-21T15:32:11.435Z,60.72
2017-07-21T15:33:24.019Z,60.52
2017-07-21T15:34:36.675Z,61.11